createdAt,value
2023-12-22T00:00:52.178Z,98830.19
2023-12-22T00:03:37.559Z,98845.66
2023-12-22T00:06:22.475Z,98842.25
2023-12-22T00:09:07.409Z,98845.56
2023-12-22T00:11:52.321Z,98853.22
2023-12-22T00:14:37.918Z,98854.94
2023-12-22T00:17:22.825Z,98873.88
2023-12-22T00:20:08.136Z,98864.41
2023-12-22T00:22:52.898Z,98872.97
2023-12-22T00:25:37.858Z,98868.69
2023-12-22T00:28:23.291Z,98871.28
2023-12-22T00:31:08.362Z,98871.31
2023-12-22T00:33:53.754Z,98867.00
2023-12-22T00:36:39.030Z,98839.69
2023-12-22T00:39:24.003Z,98832.88
2023-12-22T00:42:08.849Z,98818.38
2023-12-22T00:44:53.641Z,98761.06
2023-12-22T00:47:38.457Z,98732.00
2023-12-22T00:50:24.013Z,98714.88
2023-12-22T00:53:08.864Z,98723.44
2023-12-22T00:55:54.892Z,98734.50
2023-12-22T00:58:41.071Z,98739.66
2023-12-22T01:01:26.083Z,98729.41
2023-12-22T01:04:11.605Z,98723.34
2023-12-22T01:06:57.050Z,98730.16
2023-12-22T01:09:43.510Z,98747.25
2023-12-22T01:12:29.341Z,98742.13
2023-12-22T01:15:14.552Z,98732.72
2023-12-22T01:17:59.439Z,98726.72
2023-12-22T01:20:44.312Z,98722.47
2023-12-22T01:23:29.032Z,98703.66
2023-12-22T01:26:13.876Z,98688.25
2023-12-22T01:28:58.766Z,98680.63
2023-12-22T01:31:44.177Z,98679.75
2023-12-22T01:34:29.449Z,98719.91
2023-12-22T01:37:14.386Z,98757.56
2023-12-22T01:39:59.378Z,98802.84
2023-12-22T01:42:44.177Z,98838.09
2023-12-22T01:45:29.091Z,98839.81
2023-12-22T01:48:14.170Z,98873.19
2023-12-22T01:51:00.886Z,98849.50
2023-12-22T01:53:47.004Z,98864.41
2023-12-22T01:56:32.260Z,98920.66
2023-12-22T01:59:17.402Z,98927.91
2023-12-22T02:02:03.515Z,98980.56
2023-12-22T02:04:49.205Z,99006.25
2023-12-22T02:07:34.770Z,99000.16
2023-12-22T02:10:19.582Z,99025.75
2023-12-22T02:13:08.465Z,99035.34
2023-12-22T02:16:08.747Z,99041.41
2023-12-22T02:18:56.997Z,99027.13
2023-12-22T02:22:08.657Z,99021.31
2023-12-22T02:24:54.731Z,99021.41
2023-12-22T02:27:50.766Z,99035.38
2023-12-22T02:30:48.535Z,99045.75
2023-12-22T02:33:37.210Z,99022.63
2023-12-22T02:36:22.840Z,99016.44
2023-12-22T02:39:09.425Z,99005.22
2023-12-22T02:41:54.934Z,99012.94
2023-12-22T02:44:40.028Z,99017.44
2023-12-22T02:47:25.359Z,99014.94
2023-12-22T02:50:11.573Z,99006.41
2023-12-22T02:52:57.070Z,99004.63
2023-12-22T02:55:42.545Z,98991.09
2023-12-22T02:58:27.960Z,98962.22
2023-12-22T03:01:12.747Z,98961.44
2023-12-22T03:03:57.700Z,98924.72
2023-12-22T03:06:42.579Z,98904.38
2023-12-22T03:09:27.430Z,98881.31
2023-12-22T03:12:12.370Z,98872.69
2023-12-22T03:14:57.827Z,98839.44
2023-12-22T03:17:42.953Z,98818.94
2023-12-22T03:20:27.882Z,98813.81
2023-12-22T03:23:12.909Z,98790.66
2023-12-22T03:25:57.877Z,98783.84
2023-12-22T03:28:43.278Z,98822.47
2023-12-22T03:31:28.760Z,98848.94
2023-12-22T03:34:14.268Z,98867.53
2023-12-22T03:36:59.337Z,98892.06
2023-12-22T03:39:44.245Z,98924.63
2023-12-22T03:42:29.204Z,98926.44
2023-12-22T03:45:14.042Z,98920.34
2023-12-22T03:47:59.442Z,98930.50
2023-12-22T03:50:44.655Z,98939.94
2023-12-22T03:53:29.530Z,98946.81
2023-12-22T03:56:14.509Z,98930.53
2023-12-22T03:58:59.472Z,98947.69
2023-12-22T04:01:44.291Z,98943.41
2023-12-22T04:04:29.164Z,98945.16
2023-12-22T04:07:14.411Z,98953.00
2023-12-22T04:09:59.376Z,98920.56
2023-12-22T04:12:44.519Z,98906.00
2023-12-22T04:15:29.688Z,98917.16
2023-12-22T04:18:14.592Z,98939.28
2023-12-22T04:20:59.574Z,98939.31
2023-12-22T04:23:44.498Z,98947.75
2023-12-22T04:26:29.455Z,98952.09
2023-12-22T04:29:15.209Z,98974.28
2023-12-22T04:32:00.413Z,98977.69
2023-12-22T04:34:45.428Z,98983.47
2023-12-22T04:37:30.418Z,99007.38
2023-12-22T04:40:15.253Z,99020.16
2023-12-22T04:43:00.355Z,99033.06
2023-12-22T04:45:45.510Z,99038.81
2023-12-22T04:48:30.543Z,99049.88
2023-12-22T04:51:15.858Z,99051.56
2023-12-22T04:54:01.320Z,99052.34
2023-12-22T04:56:46.248Z,99046.25
2023-12-22T04:59:32.043Z,99047.06
2023-12-22T05:02:17.255Z,99047.81
2023-12-22T05:05:02.152Z,99036.53
2023-12-22T05:07:47.207Z,99056.22
2023-12-22T05:10:32.459Z,99054.44
2023-12-22T05:13:17.568Z,99047.69
2023-12-22T05:16:02.292Z,99068.19
2023-12-22T05:18:47.562Z,99063.09
2023-12-22T05:21:32.683Z,99045.88
2023-12-22T05:24:17.575Z,99049.34
2023-12-22T05:27:02.892Z,99060.44
2023-12-22T05:29:47.832Z,99040.66
2023-12-22T05:32:32.769Z,99050.75
2023-12-22T05:35:17.695Z,99046.50
2023-12-22T05:38:03.372Z,99058.66
2023-12-22T05:40:48.746Z,99072.41
2023-12-22T05:43:34.271Z,99076.75
2023-12-22T05:46:19.590Z,99070.03
2023-12-22T05:49:04.852Z,99067.56
2023-12-22T05:51:50.226Z,99059.84
2023-12-22T05:54:35.013Z,99049.84
2023-12-22T05:57:19.917Z,99053.25
2023-12-22T06:00:05.948Z,99063.44
2023-12-22T06:02:51.031Z,99072.06
2023-12-22T06:05:36.110Z,99063.44
2023-12-22T06:08:21.392Z,99067.00
2023-12-22T06:11:06.677Z,99056.88
2023-12-22T06:13:51.501Z,99057.78
2023-12-22T06:16:37.024Z,99055.38
2023-12-22T06:19:21.820Z,99057.09
2023-12-22T06:22:06.799Z,99056.38
2023-12-22T06:24:52.049Z,99053.84
2023-12-22T06:27:37.157Z,99038.50
2023-12-22T06:30:22.002Z,99050.53
2023-12-22T06:33:06.982Z,99047.94
2023-12-22T06:35:52.237Z,99065.09
2023-12-22T06:38:37.077Z,99055.72
2023-12-22T06:41:32.028Z,99041.25
2023-12-22T06:44:17.165Z,99031.75
2023-12-22T06:47:02.338Z,99023.22
2023-12-22T06:49:47.657Z,99041.25
2023-12-22T06:52:33.034Z,99038.66
2023-12-22T06:55:18.077Z,99041.25
2023-12-22T06:58:03.273Z,99042.16
2023-12-22T07:00:48.357Z,99032.66
2023-12-22T07:03:33.249Z,99042.09
2023-12-22T07:06:19.461Z,99042.13
2023-12-22T07:09:16.685Z,99047.25
2023-12-22T07:12:01.673Z,99044.69
2023-12-22T07:14:47.557Z,99072.03
2023-12-22T07:17:32.703Z,99056.69
2023-12-22T07:20:17.921Z,99070.50
2023-12-22T07:23:02.966Z,99073.84
2023-12-22T07:25:47.914Z,99083.38
2023-12-22T07:28:33.798Z,99083.28
2023-12-22T07:31:19.604Z,99075.66
2023-12-22T07:34:04.654Z,99070.50
2023-12-22T07:36:59.113Z,99076.53
2023-12-22T07:39:48.462Z,99069.66
2023-12-22T07:42:33.895Z,99061.19
2023-12-22T07:45:18.776Z,99064.56
2023-12-22T07:48:03.964Z,99071.50
2023-12-22T07:50:49.249Z,99080.00
2023-12-22T07:53:34.834Z,99083.47
2023-12-22T07:56:19.705Z,99075.88
2023-12-22T07:59:13.662Z,99078.50
2023-12-22T08:02:08.786Z,99081.03
2023-12-22T08:04:54.187Z,99085.31
2023-12-22T08:07:39.054Z,99107.47
2023-12-22T08:10:24.077Z,99105.84
2023-12-22T08:13:09.362Z,99126.47
2023-12-22T08:15:54.417Z,99117.91
2023-12-22T08:18:39.391Z,99118.00
2023-12-22T08:21:33.733Z,99094.94
2023-12-22T08:24:24.861Z,99090.59
2023-12-22T08:27:10.346Z,99108.50
2023-12-22T08:29:55.601Z,99110.34
2023-12-22T08:32:40.504Z,99107.66
2023-12-22T08:35:25.981Z,99121.41
2023-12-22T08:38:11.213Z,99139.22
2023-12-22T08:40:59.227Z,99155.59
2023-12-22T08:43:46.040Z,99163.28
2023-12-22T08:46:31.127Z,99185.28
2023-12-22T08:49:16.017Z,99205.81
2023-12-22T08:52:01.604Z,99211.81
2023-12-22T08:54:46.379Z,99222.72
2023-12-22T08:57:31.358Z,99242.47
2023-12-22T09:00:16.384Z,99239.97
2023-12-22T09:03:01.715Z,99230.44
2023-12-22T09:05:46.615Z,99235.69
2023-12-22T09:08:31.423Z,99226.97
2023-12-22T09:11:21.061Z,99238.16
2023-12-22T09:14:07.310Z,99238.06
2023-12-22T09:16:52.734Z,99252.66
2023-12-22T09:19:37.774Z,99264.59
2023-12-22T09:22:23.096Z,99261.06
2023-12-22T09:25:08.119Z,99264.31
2023-12-22T09:27:53.082Z,99289.19
2023-12-22T09:30:37.945Z,99280.69
2023-12-22T09:33:22.938Z,99291.66
2023-12-22T09:36:08.817Z,99295.16
2023-12-22T09:38:53.904Z,99307.19
2023-12-22T09:41:38.885Z,99291.03
2023-12-22T09:44:25.217Z,99289.47
2023-12-22T09:47:11.766Z,99284.41
2023-12-22T09:49:59.012Z,99282.78
2023-12-22T09:52:44.850Z,99283.63
2023-12-22T09:55:33.595Z,99282.06
2023-12-22T09:58:19.025Z,99277.72
2023-12-22T10:01:05.735Z,99265.81
2023-12-22T10:03:50.895Z,99272.72
2023-12-22T10:06:35.827Z,99277.13
2023-12-22T10:09:21.222Z,99284.09
2023-12-22T10:12:07.754Z,99273.00
2023-12-22T10:14:54.168Z,99254.25
2023-12-22T10:17:40.909Z,99245.66
2023-12-22T10:20:25.720Z,99245.72
2023-12-22T10:23:10.699Z,99234.53
2023-12-22T10:25:58.752Z,99245.75
2023-12-22T10:28:44.048Z,99240.59
2023-12-22T10:31:40.735Z,99214.97
2023-12-22T10:34:26.134Z,99208.81
2023-12-22T10:37:11.536Z,99208.78
2023-12-22T10:39:56.479Z,99214.56
2023-12-22T10:42:41.779Z,99222.09
2023-12-22T10:45:26.916Z,99200.72
2023-12-22T10:48:12.065Z,99195.50
2023-12-22T10:50:57.333Z,99220.38
2023-12-22T10:53:43.247Z,99231.44
2023-12-22T10:56:29.412Z,99246.06
2023-12-22T10:59:19.174Z,99237.47
2023-12-22T11:02:05.309Z,99226.34
2023-12-22T11:04:58.728Z,99227.22
2023-12-22T11:07:49.241Z,99216.97
2023-12-22T11:10:38.346Z,99238.63
2023-12-22T11:13:24.434Z,99230.13
2023-12-22T11:16:10.505Z,99223.22
2023-12-22T11:18:56.836Z,99200.25
2023-12-22T11:21:42.058Z,99185.53
2023-12-22T11:24:29.303Z,99169.31
2023-12-22T11:27:16.296Z,99178.88
2023-12-22T11:30:01.995Z,99183.25
2023-12-22T11:32:50.093Z,99184.84
2023-12-22T11:35:36.353Z,99190.94
2023-12-22T11:38:21.525Z,99189.16
2023-12-22T11:41:10.086Z,99191.63
2023-12-22T11:43:57.042Z,99201.00
2023-12-22T11:46:42.491Z,99195.13
2023-12-22T11:49:36.280Z,99187.44
2023-12-22T11:52:27.106Z,99174.47
2023-12-22T11:55:12.200Z,99172.97
2023-12-22T11:57:57.182Z,99150.75
2023-12-22T12:00:41.957Z,99154.22
2023-12-22T12:03:27.911Z,99157.41
2023-12-22T12:06:27.825Z,99137.72
2023-12-22T12:09:13.373Z,99121.44
2023-12-22T12:12:10.445Z,99105.13
2023-12-22T12:14:59.116Z,99114.50
2023-12-22T12:17:44.423Z,99122.28
2023-12-22T12:20:29.974Z,99113.75
2023-12-22T12:23:16.480Z,99112.09
2023-12-22T12:26:02.082Z,99111.38
2023-12-22T12:28:48.018Z,99125.91
2023-12-22T12:31:37.347Z,99113.84
2023-12-22T12:34:23.955Z,99118.06
2023-12-22T12:37:09.689Z,99111.28
2023-12-22T12:39:59.549Z,99112.97
2023-12-22T12:42:45.453Z,99112.16
2023-12-22T12:45:30.792Z,99097.59
2023-12-22T12:48:19.507Z,99084.84
2023-12-22T12:51:06.469Z,99068.50
2023-12-22T12:53:51.600Z,99070.28
2023-12-22T12:56:41.601Z,99064.31
2023-12-22T12:59:26.604Z,99060.88
2023-12-22T13:02:11.764Z,99051.47
2023-12-22T13:04:57.266Z,99055.75
2023-12-22T13:07:42.732Z,99052.34
2023-12-22T13:10:27.602Z,99050.69
2023-12-22T13:13:12.667Z,99070.31
2023-12-22T13:15:57.843Z,99060.81
2023-12-22T13:18:43.464Z,99073.75
2023-12-22T13:21:29.953Z,99084.00
2023-12-22T13:24:18.417Z,99100.25
2023-12-22T13:27:05.506Z,99100.22
2023-12-22T13:29:50.581Z,99113.06
2023-12-22T13:32:35.560Z,99109.59
2023-12-22T13:35:24.772Z,99127.56
2023-12-22T13:38:10.665Z,99124.88
2023-12-22T13:40:56.103Z,99133.47
2023-12-22T13:43:41.144Z,99125.63
2023-12-22T13:46:28.830Z,99127.50
2023-12-22T13:49:14.059Z,99127.47
2023-12-22T13:51:59.429Z,99142.81
2023-12-22T13:54:44.402Z,99150.41
2023-12-22T13:57:29.816Z,99156.53
2023-12-22T14:00:20.965Z,99144.50
2023-12-22T14:03:05.864Z,99147.91
2023-12-22T14:05:54.011Z,99155.66
2023-12-22T14:08:42.332Z,99144.34
2023-12-22T14:11:30.371Z,99142.72
2023-12-22T14:14:16.672Z,99140.94
2023-12-22T14:17:01.598Z,99137.44
2023-12-22T14:19:46.511Z,99142.63
2023-12-22T14:22:31.891Z,99139.22
2023-12-22T14:25:16.807Z,99138.34
2023-12-22T14:28:01.674Z,99127.97
2023-12-22T14:30:46.706Z,99131.50
2023-12-22T14:33:32.021Z,99132.28
2023-12-22T14:36:17.094Z,99132.19
2023-12-22T14:39:01.981Z,99137.44
2023-12-22T14:41:46.894Z,99147.63
2023-12-22T14:44:32.039Z,99135.69
2023-12-22T14:47:17.445Z,99144.25
2023-12-22T14:50:03.618Z,99148.56
2023-12-22T14:52:48.923Z,99149.47
2023-12-22T14:55:34.316Z,99152.94
2023-12-22T14:58:19.066Z,99153.03
2023-12-22T15:01:04.284Z,99147.81
2023-12-22T15:03:49.507Z,99142.78
2023-12-22T15:06:39.274Z,99136.72
2023-12-22T15:09:24.405Z,99126.38
2023-12-22T15:12:09.350Z,99134.25
2023-12-22T15:14:54.702Z,99132.47
2023-12-22T15:17:39.659Z,99122.38
2023-12-22T15:20:24.634Z,99124.00
2023-12-22T15:23:10.031Z,99132.66
2023-12-22T15:25:54.794Z,99118.13
2023-12-22T15:28:39.669Z,99121.66
2023-12-22T15:31:24.443Z,99119.88
2023-12-22T15:34:09.426Z,99115.66
2023-12-22T15:36:54.987Z,99144.88
2023-12-22T15:39:40.135Z,99137.19
2023-12-22T15:42:25.115Z,99141.47
2023-12-22T15:45:11.219Z,99145.75
2023-12-22T15:47:56.469Z,99151.75
2023-12-22T15:50:41.277Z,99149.16
2023-12-22T15:53:26.201Z,99152.56
2023-12-22T15:56:12.023Z,99144.81
2023-12-22T15:58:57.373Z,99169.75
2023-12-22T16:01:46.028Z,99191.19
2023-12-22T16:04:31.110Z,99197.19
2023-12-22T16:07:15.953Z,99182.56
2023-12-22T16:10:01.454Z,99191.13
2023-12-22T16:12:46.527Z,99203.03
2023-12-22T16:15:31.804Z,99186.81
2023-12-22T16:18:16.614Z,99192.75
2023-12-22T16:21:01.962Z,99181.69
2023-12-22T16:23:46.854Z,99175.72
2023-12-22T16:26:31.763Z,99162.78
2023-12-22T16:29:16.797Z,99152.47
2023-12-22T16:32:01.848Z,99139.66
2023-12-22T16:34:46.645Z,99135.34
2023-12-22T16:37:31.650Z,99133.63
2023-12-22T16:40:16.709Z,99158.44
2023-12-22T16:43:01.850Z,99178.16
2023-12-22T16:45:46.766Z,99199.50
2023-12-22T16:48:31.602Z,99192.75
2023-12-22T16:51:16.377Z,99203.00
2023-12-22T16:54:01.313Z,99199.66
2023-12-22T16:56:46.645Z,99197.06
2023-12-22T16:59:31.614Z,99205.69
2023-12-22T17:02:27.841Z,99191.09
2023-12-22T17:05:18.525Z,99162.91
2023-12-22T17:08:04.966Z,99150.88
2023-12-22T17:10:50.396Z,99133.72
2023-12-22T17:13:35.695Z,99121.75
2023-12-22T17:16:20.555Z,99094.41
2023-12-22T17:19:05.422Z,99098.78
2023-12-22T17:21:50.223Z,99093.59
2023-12-22T17:24:35.305Z,99080.72
2023-12-22T17:27:20.214Z,99070.47
2023-12-22T17:30:05.699Z,99082.53
2023-12-22T17:32:50.957Z,99084.22
2023-12-22T17:35:36.398Z,99091.13
2023-12-22T17:38:21.505Z,99090.28
2023-12-22T17:41:06.895Z,99090.22
2023-12-22T17:43:52.149Z,99086.00
2023-12-22T17:46:37.902Z,99072.31
2023-12-22T17:49:23.241Z,99078.28
2023-12-22T17:52:08.178Z,99069.72
2023-12-22T17:54:52.945Z,99066.31
2023-12-22T17:57:37.926Z,99060.31
2023-12-22T18:00:22.861Z,99056.88
2023-12-22T18:03:07.831Z,99041.44
2023-12-22T18:05:52.830Z,99031.16
2023-12-22T18:08:37.621Z,99032.88
2023-12-22T18:11:22.538Z,99040.59
2023-12-22T18:14:07.644Z,99037.16
2023-12-22T18:16:52.733Z,99034.63
2023-12-22T18:19:37.539Z,99025.16
2023-12-22T18:22:22.914Z,99038.88
2023-12-22T18:25:07.982Z,99019.22
2023-12-22T18:27:53.022Z,99023.53
2023-12-22T18:30:37.819Z,99022.66
2023-12-22T18:33:22.858Z,99044.97
2023-12-22T18:36:08.356Z,99050.91
2023-12-22T18:38:53.341Z,99050.06
2023-12-22T18:41:38.432Z,99057.84
2023-12-22T18:44:23.616Z,99085.28
2023-12-22T18:47:08.564Z,99074.16
2023-12-22T18:49:54.050Z,99080.16
2023-12-22T18:52:39.005Z,99078.44
2023-12-22T18:55:24.009Z,99083.63
2023-12-22T18:58:08.877Z,99092.19
2023-12-22T19:00:53.932Z,99107.59
2023-12-22T19:03:39.386Z,99099.84
2023-12-22T19:06:25.704Z,99107.63
2023-12-22T19:09:10.852Z,99111.91
2023-12-22T19:11:56.337Z,99092.09
2023-12-22T19:14:41.326Z,99103.28
2023-12-22T19:17:26.172Z,99097.25
2023-12-22T19:20:11.654Z,99118.75
2023-12-22T19:22:57.159Z,99135.06
2023-12-22T19:25:41.979Z,99124.72
2023-12-22T19:28:26.935Z,99136.72
2023-12-22T19:31:11.840Z,99157.28
2023-12-22T19:33:56.890Z,99176.13
2023-12-22T19:36:42.105Z,99189.84
2023-12-22T19:39:26.965Z,99207.84
2023-12-22T19:42:11.951Z,99193.13
2023-12-22T19:44:57.062Z,99216.22
2023-12-22T19:47:41.984Z,99240.25
2023-12-22T19:50:26.874Z,99255.66
2023-12-22T19:53:12.079Z,99268.53
2023-12-22T19:55:57.171Z,99288.19
2023-12-22T19:58:42.733Z,99288.03
2023-12-22T20:01:27.613Z,99313.69
2023-12-22T20:04:12.681Z,99330.03
2023-12-22T20:06:58.980Z,99329.03
2023-12-22T20:09:43.929Z,99340.84
2023-12-22T20:12:28.780Z,99350.38
2023-12-22T20:15:13.727Z,99365.63
2023-12-22T20:17:58.683Z,99373.34
2023-12-22T20:20:44.206Z,99372.47
2023-12-22T20:23:29.511Z,99377.53
2023-12-22T20:26:16.549Z,99382.69
2023-12-22T20:29:02.074Z,99392.16
2023-12-22T20:31:47.171Z,99401.50
2023-12-22T20:34:32.657Z,99409.31
2023-12-22T20:37:17.445Z,99408.50
2023-12-22T20:40:02.443Z,99418.84
2023-12-22T20:42:47.230Z,99415.31
2023-12-22T20:45:32.108Z,99423.00
2023-12-22T20:48:17.017Z,99422.75
2023-12-22T20:51:03.614Z,99430.44
2023-12-22T20:53:48.896Z,99454.53
2023-12-22T20:56:33.821Z,99444.06
2023-12-22T20:59:19.447Z,99452.78
2023-12-22T21:02:05.163Z,99452.84
2023-12-22T21:04:50.549Z,99453.56
2023-12-22T21:07:35.390Z,99461.38
2023-12-22T21:10:20.381Z,99475.81
2023-12-22T21:13:05.293Z,99492.13
2023-12-22T21:15:50.475Z,99471.56
2023-12-22T21:18:37.981Z,99473.41
2023-12-22T21:21:22.747Z,99464.72
2023-12-22T21:24:07.700Z,99451.19
2023-12-22T21:26:52.628Z,99453.50
2023-12-22T21:29:37.810Z,99471.47
2023-12-22T21:32:23.195Z,99457.78
2023-12-22T21:35:08.751Z,99461.25
2023-12-22T21:37:54.406Z,99471.59
2023-12-22T21:40:39.621Z,99486.13
2023-12-22T21:43:24.588Z,99495.72
2023-12-22T21:46:10.344Z,99480.16
2023-12-22T21:48:55.531Z,99478.50
2023-12-22T21:51:40.497Z,99460.53
2023-12-22T21:54:25.417Z,99451.19
2023-12-22T21:57:10.442Z,99456.31
2023-12-22T21:59:55.294Z,99442.63
2023-12-22T22:02:40.241Z,99453.06
2023-12-22T22:05:25.084Z,99428.16
2023-12-22T22:08:10.612Z,99418.03
2023-12-22T22:10:55.991Z,99423.94
2023-12-22T22:13:44.021Z,99439.41
2023-12-22T22:16:29.628Z,99442.78
2023-12-22T22:19:14.856Z,99451.34
2023-12-22T22:21:59.625Z,99458.13
2023-12-22T22:24:44.670Z,99462.63
2023-12-22T22:27:29.602Z,99469.34
2023-12-22T22:30:14.609Z,99477.13
2023-12-22T22:32:59.479Z,99473.69
2023-12-22T22:35:44.368Z,99490.09
2023-12-22T22:38:29.422Z,99483.97
2023-12-22T22:41:14.725Z,99511.44
2023-12-22T22:44:00.371Z,99517.25
2023-12-22T22:46:45.683Z,99512.88
2023-12-22T22:49:30.605Z,99543.75
2023-12-22T22:52:15.375Z,99537.66
2023-12-22T22:55:00.396Z,99518.78
2023-12-22T22:57:45.299Z,99527.47
2023-12-22T23:00:30.255Z,99526.66
2023-12-22T23:03:15.195Z,99538.59
2023-12-22T23:06:04.246Z,99533.34
2023-12-22T23:08:49.051Z,99539.34
2023-12-22T23:11:34.483Z,99550.50
2023-12-22T23:14:19.307Z,99552.31
2023-12-22T23:17:04.840Z,99564.19
2023-12-22T23:19:49.647Z,99571.06
2023-12-22T23:22:35.036Z,99579.66
2023-12-22T23:25:19.786Z,99567.63
2023-12-22T23:28:05.168Z,99577.03
2023-12-22T23:30:50.363Z,99581.25
2023-12-22T23:33:35.466Z,99569.91
2023-12-22T23:36:25.526Z,99580.19
2023-12-22T23:39:13.256Z,99574.28
2023-12-22T23:41:58.803Z,99561.38
2023-12-22T23:44:43.793Z,99562.41
2023-12-22T23:47:28.619Z,99555.38
2023-12-22T23:50:14.128Z,99550.22
2023-12-22T23:52:59.025Z,99561.41
2023-12-22T23:55:44.061Z,99560.66
2023-12-22T23:58:29.009Z,99554.41
